• Join FlightAware (Why Join?)
  • Login
  • US Flag 
01:16PM EDT


 

Airport Tracker/Info


-or-


 

Live Flight TrackerFlight Track Log ✈ ASQ5678 ✈ 22-Aug-2013 ✈ KLFT - KIAH

Flight Track Log - Related Links

Times and Time Zones

All times are in EDT time to prevent confusion due to time zone crossing. See the ASQ5678 flight status page for this flight to view local times or setup timezone preferences in your user account.

Time Position Orientation Groundspeed Altitude Reporting Facility
EDT Latitude Longitude Course Direction KTS MPH feet Rate Location/Type
03:23PM 29.9852 -92.2774 231° Southwest  Level FlightAware Approximate
03:24PM 29.9314 -92.3520 221° Southwest  Level FlightAware Approximate
03:24PM 30.1750 -92.1575 231° Southwest 291 335 11,000  Level Houston Center
03:25PM 29.8876 -92.4322 227° Southwest  Level FlightAware Approximate
03:25PM 30.1308 -92.2822 248° West 330 380 12,900  Level Houston Center
03:26PM 29.8293 -92.5061 233° Southwest  Level FlightAware Approximate
03:26PM 30.0900 -92.3972 248° West 359 413 14,000  Level Houston Center
03:27PM 29.7765 -92.5853 233° Southwest  Level FlightAware Approximate
03:27PM 30.0447 -92.5164 246° West 382 440 15,400  Level Houston Center
03:28PM 29.9997 -92.6361 247° West 396 456 17,400 1,860 Climbing Houston Center
03:29PM 29.9544 -92.7531 246° West 399 459 19,300 1,200 Climbing Houston Center
03:30PM 29.9094 -92.8714 246° West 401 461 20,000 240 Climbing Houston Center
03:31PM 29.8514 -93.0256 247° West 431 496 19,900  Descending Houston Center
03:32PM 29.8006 -93.1492 245° Southwest 427 491 20,000  Climbing Houston Center
03:33PM 29.7439 -93.2689 241° Southwest 423 487 20,000  Level Houston Center
03:34PM 29.6981 -93.3958 247° West 427 491 20,000  Level Houston Center
03:35PM 29.6708 -93.5311 257° West 431 496 20,000  Level Houston Center
03:36PM 29.6483 -93.6633 259° West 423 487 20,000 -60 Level Houston Center
03:37PM 29.6261 -93.7953 259° West 420 483 19,900 -1,080 Descending Houston Center
03:38PM 29.6000 -93.9531 259° West 419 482 17,800 -1,800 Descending Houston Center
03:39PM 29.5783 -94.0814 259° West 411 473 16,200 -1,860 Descending Houston Center
03:41PM 29.5442 -94.2742 259° West 385 443 13,100 -1,560 Descending Houston Center
03:41PM 29.5394 -94.3317 265° West 375 432 13,000 -660 Descending Houston Center
03:43PM 29.5700 -94.4303 290° West 335 386 12,100 -1,260 Descending Houston Center
03:44PM 29.6114 -94.5283 296° West 343 395 10,400 -1,380 Descending Houston Center
03:44PM 29.6383 -94.5914 296° West 341 392 10,000 -300 Descending Houston Center
03:45PM 29.6847 -94.6792 301° West 329 379 10,000  Level Houston Center
03:46PM 29.7036 -94.7342 292° West 334 384 10,000 -420 Level Houston Center
03:47PM 29.7383 -94.8231 294° West 311 358 9,400 -1,260 Descending Houston Center
03:48PM 29.7719 -94.9036 296° West 284 327 7,500 -1,680 Descending Houston Center
03:49PM 29.8081 -94.9842 297° West 286 329 6,000 -720 Descending Houston Center
03:50PM 29.8553 -95.0531 308° West 277 319 6,000  Level Houston Center
03:51PM 29.8961 -95.1439 297° West 280 322 6,100  Climbing Houston Center
03:52PM 29.9003 -95.2342 273° West 286 329 6,100  Level Houston Center
03:53PM 29.9003 -95.3231 270° West 282 325 6,100 -60 Level Houston Center
03:54PM 29.9006 -95.4103 270° West 278 320 6,000 -180 Descending Houston Center
03:55PM 29.9008 -95.4861 270° West 249 287 5,800 -1,200 Descending Houston Center
03:56PM 29.9436 -95.5422 311° West 234 269 3,600 -1,500 Descending Houston Center
03:57PM 29.9858 -95.5092 34° Northeast 205 236 2,800 -960 Descending Houston Center
03:58PM 29.9942 -95.4514 81° East 192 221 1,700 -900 Descending Houston Center
03:59PM 29.9936 -95.4039 91° East 171 197 1,000 -660 Descending Houston Center
04:00PM 29.9936 -95.3581 90° East 153 176 400 -600 Descending Houston Center